createdAt,value
2022-10-05T00:01:46.839Z,3.83
2022-10-05T00:04:57.085Z,4.70
2022-10-05T00:08:25.414Z,2.88
2022-10-05T00:11:30.144Z,2.78
2022-10-05T00:14:36.753Z,3.25
2022-10-05T00:17:42.911Z,3.17
2022-10-05T00:20:49.229Z,3.92
2022-10-05T00:23:57.876Z,3.35
2022-10-05T00:27:16.708Z,3.15
2022-10-05T00:30:23.398Z,3.55
2022-10-05T00:33:28.334Z,2.60
2022-10-05T00:36:33.022Z,2.83
2022-10-05T00:39:40.208Z,2.92
2022-10-05T00:43:05.969Z,3.75
2022-10-05T00:46:22.608Z,4.32
2022-10-05T00:49:48.317Z,4.15
2022-10-05T00:53:35.453Z,2.50
2022-10-05T00:56:53.859Z,3.60
2022-10-05T01:00:13.093Z,3.08
2022-10-05T01:03:41.109Z,3.42
2022-10-05T01:07:17.810Z,3.92
2022-10-05T01:10:26.084Z,2.97
2022-10-05T01:13:51.129Z,4.03
2022-10-05T01:17:20.302Z,2.92
2022-10-05T01:20:47.392Z,3.75
2022-10-05T01:24:22.293Z,2.78
2022-10-05T01:27:40.189Z,4.00
2022-10-05T01:31:26.266Z,3.17
2022-10-05T01:34:46.147Z,4.55
2022-10-05T01:38:08.569Z,3.58
2022-10-05T01:41:38.720Z,2.90
2022-10-05T01:44:51.117Z,3.35
2022-10-05T01:48:17.694Z,3.45
2022-10-05T01:51:55.254Z,3.40
2022-10-05T01:55:43.318Z,3.35
2022-10-05T01:59:16.883Z,3.20
2022-10-05T02:02:24.211Z,4.77
2022-10-05T02:06:20.664Z,2.60
2022-10-05T02:09:33.363Z,3.45
2022-10-05T02:12:38.833Z,2.65
2022-10-05T02:16:00.426Z,4.97
2022-10-05T02:19:14.983Z,3.90
2022-10-05T02:22:28.739Z,3.83
2022-10-05T02:25:39.937Z,4.05
2022-10-05T02:29:01.375Z,3.42
2022-10-05T02:32:29.349Z,4.68
2022-10-05T02:35:33.910Z,4.30
2022-10-05T02:39:05.254Z,4.13
2022-10-05T02:42:29.822Z,4.35
2022-10-05T02:45:40.882Z,4.85
2022-10-05T02:49:34.217Z,5.78
2022-10-05T02:53:05.299Z,3.90
2022-10-05T02:56:20.442Z,4.50
2022-10-05T02:59:53.047Z,3.70
2022-10-05T03:03:03.428Z,3.58
2022-10-05T03:06:27.032Z,3.55
2022-10-05T03:09:41.671Z,3.97
2022-10-05T03:13:03.449Z,4.97
2022-10-05T03:16:45.520Z,3.60
2022-10-05T03:20:39.840Z,3.88
2022-10-05T03:24:28.293Z,5.30
2022-10-05T03:27:57.947Z,4.03
2022-10-05T03:31:40.402Z,3.78
2022-10-05T03:34:56.794Z,4.68
2022-10-05T03:38:23.896Z,3.60
2022-10-05T03:41:53.096Z,4.72
2022-10-05T03:45:26.380Z,3.40
2022-10-05T03:49:14.419Z,6.28
2022-10-05T03:52:32.169Z,4.72
2022-10-05T03:56:09.881Z,5.50
2022-10-05T03:59:32.209Z,5.72
2022-10-05T04:03:16.004Z,5.03
2022-10-05T04:06:33.190Z,3.95
2022-10-05T04:09:43.697Z,4.38
2022-10-05T04:12:56.902Z,5.38
2022-10-05T04:16:31.192Z,4.00
2022-10-05T04:19:58.994Z,4.32
2022-10-05T04:23:38.730Z,3.72
2022-10-05T04:26:51.207Z,4.82
2022-10-05T04:30:05.232Z,3.88
2022-10-05T04:33:13.648Z,4.80
2022-10-05T04:36:34.393Z,5.63
2022-10-05T04:39:56.323Z,4.22
2022-10-05T04:43:25.548Z,5.68
2022-10-05T04:47:10.599Z,4.45
2022-10-05T04:50:31.170Z,3.60
2022-10-05T04:54:11.501Z,3.67
2022-10-05T04:58:05.786Z,5.65
2022-10-05T05:01:45.582Z,3.85
2022-10-05T05:05:22.825Z,5.05
2022-10-05T05:09:04.685Z,3.78
2022-10-05T05:12:41.723Z,4.65
2022-10-05T05:15:58.741Z,4.18
2022-10-05T05:19:18.359Z,5.15
2022-10-05T05:22:53.891Z,3.60
2022-10-05T05:26:29.065Z,3.15
2022-10-05T05:30:07.239Z,3.63
2022-10-05T05:33:27.366Z,4.38
2022-10-05T05:36:53.051Z,3.90
2022-10-05T05:40:12.287Z,4.68
2022-10-05T05:43:30.958Z,5.15
2022-10-05T05:47:02.885Z,4.10
2022-10-05T05:50:30.345Z,5.10
2022-10-05T05:53:49.580Z,4.57
2022-10-05T05:57:21.888Z,6.05
2022-10-05T06:01:31.766Z,4.03
2022-10-05T06:04:48.391Z,3.95
2022-10-05T06:07:55.830Z,8.90
2022-10-05T06:11:21.763Z,4.38
2022-10-05T06:14:42.157Z,4.78
2022-10-05T06:17:56.263Z,3.85
2022-10-05T06:21:20.611Z,4.63
2022-10-05T06:24:52.868Z,4.22
2022-10-05T06:28:13.875Z,4.55
2022-10-05T06:31:48.294Z,3.73
2022-10-05T06:35:17.659Z,3.78
2022-10-05T06:38:35.080Z,4.18
2022-10-05T06:41:57.551Z,3.35
2022-10-05T06:45:53.186Z,3.03
2022-10-05T06:49:29.588Z,3.47
2022-10-05T06:54:11.171Z,2.93
2022-10-05T06:57:39.473Z,2.38
2022-10-05T07:01:24.792Z,3.45
2022-10-05T07:07:50.175Z,2.63
2022-10-05T07:11:35.104Z,2.83
2022-10-05T07:15:37.533Z,2.60
2022-10-05T07:19:18.732Z,2.90
2022-10-05T07:22:53.843Z,2.42
2022-10-05T07:26:14.833Z,4.10
2022-10-05T07:29:51.327Z,3.38
2022-10-05T07:33:17.569Z,2.88
2022-10-05T07:37:02.643Z,4.18
2022-10-05T07:40:44.573Z,3.33
2022-10-05T07:44:02.986Z,3.08
2022-10-05T07:47:41.436Z,3.50
2022-10-05T07:51:45.234Z,2.20
2022-10-05T07:55:18.819Z,2.83
2022-10-05T07:58:35.608Z,2.85
2022-10-05T08:01:47.316Z,3.30
2022-10-05T08:05:20.433Z,3.13
2022-10-05T08:08:57.409Z,4.10
2022-10-05T08:12:41.718Z,4.13
2022-10-05T08:15:55.956Z,2.78
2022-10-05T08:19:23.529Z,3.13
2022-10-05T08:22:42.979Z,3.53
2022-10-05T08:26:31.571Z,3.15
2022-10-05T08:29:49.102Z,3.17
2022-10-05T08:33:09.844Z,3.20
2022-10-05T08:36:19.827Z,2.80
2022-10-05T08:39:30.277Z,3.35
2022-10-05T08:43:08.713Z,2.00
2022-10-05T08:46:44.851Z,2.63
2022-10-05T08:50:08.522Z,2.47
2022-10-05T08:53:37.124Z,3.40
2022-10-05T08:57:21.828Z,2.97
2022-10-05T09:01:06.330Z,4.63
2022-10-05T09:04:54.603Z,2.90
2022-10-05T09:08:40.653Z,2.78
2022-10-05T09:12:17.986Z,2.53
2022-10-05T09:16:32.514Z,2.05
2022-10-05T09:19:49.720Z,2.17
2022-10-05T09:23:00.126Z,2.28
2022-10-05T09:27:01.333Z,3.45
2022-10-05T09:30:33.364Z,2.38
2022-10-05T09:34:02.222Z,2.55
2022-10-05T09:37:27.166Z,2.92
2022-10-05T09:41:00.115Z,2.70
2022-10-05T09:44:23.192Z,1.83
2022-10-05T09:47:53.040Z,2.22
2022-10-05T09:51:21.610Z,3.22
2022-10-05T09:54:56.863Z,3.15
2022-10-05T09:58:30.362Z,4.55
2022-10-05T10:01:59.855Z,2.40
2022-10-05T10:05:34.582Z,2.80
2022-10-05T10:08:46.854Z,3.00
2022-10-05T10:12:32.133Z,2.25
2022-10-05T10:16:17.291Z,2.95
2022-10-05T10:19:59.405Z,2.35
2022-10-05T10:23:42.116Z,1.77
2022-10-05T10:27:11.109Z,2.08
2022-10-05T10:30:59.834Z,1.80
2022-10-05T10:34:44.168Z,1.75
2022-10-05T10:42:00.521Z,2.67
2022-10-05T10:45:28.722Z,1.83
2022-10-05T10:49:43.299Z,1.58
2022-10-05T10:53:34.727Z,2.20
2022-10-05T10:57:36.175Z,1.77
2022-10-05T11:01:02.959Z,2.63
2022-10-05T11:04:37.873Z,2.92
2022-10-05T11:08:13.489Z,1.55
2022-10-05T11:12:06.014Z,5.65
2022-10-05T11:20:10.523Z,1.65
2022-10-05T11:23:36.524Z,1.80
2022-10-05T11:27:16.824Z,2.05
2022-10-05T11:30:36.579Z,2.15
2022-10-05T11:34:09.896Z,1.73
2022-10-05T11:37:45.175Z,1.45
2022-10-05T11:41:27.705Z,1.95
2022-10-05T11:45:06.237Z,1.50
2022-10-05T11:48:33.859Z,2.50
2022-10-05T11:51:48.493Z,1.77
2022-10-05T11:55:19.570Z,2.22
2022-10-05T11:58:57.661Z,1.98
2022-10-05T12:02:41.394Z,1.63
2022-10-05T12:06:02.082Z,1.40
2022-10-05T12:10:16.580Z,1.92
2022-10-05T12:13:43.234Z,2.00
2022-10-05T12:16:59.257Z,1.30
2022-10-05T12:20:20.730Z,1.55
2022-10-05T12:23:33.777Z,2.28
2022-10-05T12:26:58.419Z,1.38
2022-10-05T12:30:25.144Z,1.90
2022-10-05T12:33:49.413Z,2.03
2022-10-05T12:37:04.672Z,2.15
2022-10-05T12:40:32.991Z,1.40
2022-10-05T12:44:11.827Z,1.55
2022-10-05T12:47:44.546Z,1.58
2022-10-05T12:51:07.162Z,2.88
2022-10-05T12:54:37.736Z,2.10
2022-10-05T12:58:11.558Z,2.25
2022-10-05T13:01:25.927Z,1.58
2022-10-05T13:05:06.882Z,3.40
2022-10-05T13:09:08.535Z,1.55
2022-10-05T13:12:49.644Z,1.27
2022-10-05T13:16:17.740Z,1.30
2022-10-05T13:20:07.671Z,1.35
2022-10-05T13:23:40.311Z,1.70
2022-10-05T13:26:51.717Z,1.17
2022-10-05T13:30:17.205Z,1.02
2022-10-05T13:33:55.873Z,1.35
2022-10-05T13:37:38.540Z,1.58
2022-10-05T13:41:00.387Z,0.77
2022-10-05T13:45:20.305Z,0.88
2022-10-05T13:49:03.492Z,0.95
2022-10-05T13:52:35.081Z,2.33
2022-10-05T13:55:47.551Z,1.20
2022-10-05T13:59:17.429Z,0.93
2022-10-05T14:02:30.171Z,1.02
2022-10-05T14:05:34.572Z,1.43
2022-10-05T14:08:53.606Z,1.20
2022-10-05T14:12:04.014Z,1.15
2022-10-05T14:15:30.439Z,0.98
2022-10-05T14:18:38.223Z,1.98
2022-10-05T14:22:01.654Z,0.82
2022-10-05T14:25:09.191Z,1.27
2022-10-05T14:28:34.245Z,1.60
2022-10-05T14:32:14.847Z,0.98
2022-10-05T14:35:23.999Z,2.15
2022-10-05T14:38:31.727Z,1.67
2022-10-05T14:41:37.581Z,1.80
2022-10-05T14:44:42.236Z,1.77
2022-10-05T14:47:50.793Z,2.80
2022-10-05T14:51:03.265Z,2.40
2022-10-05T14:54:43.773Z,2.03
2022-10-05T14:58:13.560Z,1.67
2022-10-05T15:01:39.221Z,2.33
2022-10-05T15:05:03.825Z,1.65
2022-10-05T15:08:54.522Z,2.70
2022-10-05T15:12:02.683Z,1.88
2022-10-05T15:15:27.028Z,1.98
2022-10-05T15:19:01.499Z,2.35
2022-10-05T15:22:41.096Z,1.65
2022-10-05T15:26:21.943Z,1.48
2022-10-05T15:29:54.905Z,2.00
2022-10-05T15:33:18.118Z,1.67
2022-10-05T15:36:35.582Z,1.90
2022-10-05T15:39:59.802Z,1.65
2022-10-05T15:43:17.228Z,2.15
2022-10-05T15:46:43.301Z,2.45
2022-10-05T15:50:37.429Z,1.50
2022-10-05T15:54:40.793Z,2.97
2022-10-05T15:58:08.396Z,2.10
2022-10-05T16:01:43.569Z,3.42
2022-10-05T16:05:12.128Z,1.45
2022-10-05T16:08:51.033Z,1.60
2022-10-05T16:12:22.676Z,1.48
2022-10-05T16:15:41.365Z,2.55
2022-10-05T16:19:16.200Z,3.15
2022-10-05T16:22:52.905Z,1.75
2022-10-05T16:26:24.993Z,3.13
2022-10-05T16:29:54.237Z,1.65
2022-10-05T16:33:11.787Z,1.88
2022-10-05T16:37:01.052Z,1.98
2022-10-05T16:40:50.726Z,1.27
2022-10-05T16:44:34.957Z,1.60
2022-10-05T16:48:13.237Z,1.30
2022-10-05T16:51:39.190Z,1.55
2022-10-05T16:55:02.878Z,1.67
2022-10-05T16:58:52.826Z,1.30
2022-10-05T17:02:37.675Z,1.17
2022-10-05T17:05:59.659Z,0.70
2022-10-05T17:09:26.496Z,1.35
2022-10-05T17:12:45.667Z,1.85
2022-10-05T17:16:16.465Z,2.80
2022-10-05T17:19:32.904Z,1.58
2022-10-05T17:22:54.980Z,1.90
2022-10-05T17:26:21.459Z,1.42
2022-10-05T17:29:32.048Z,1.48
2022-10-05T17:32:53.788Z,2.15
2022-10-05T17:36:08.528Z,1.60
2022-10-05T17:39:52.212Z,1.65
2022-10-05T17:43:15.401Z,1.35
2022-10-05T17:46:45.872Z,1.50
2022-10-05T17:50:17.954Z,1.63
2022-10-05T17:54:02.475Z,1.70
2022-10-05T17:57:06.712Z,2.45
2022-10-05T18:00:40.472Z,1.45
2022-10-05T18:03:50.503Z,1.25
2022-10-05T18:07:16.765Z,1.75
2022-10-05T18:10:29.105Z,1.55
2022-10-05T18:13:36.865Z,1.50
2022-10-05T18:17:14.568Z,1.63
2022-10-05T18:20:27.830Z,1.25
2022-10-05T18:23:36.233Z,1.42
2022-10-05T18:27:10.278Z,2.28
2022-10-05T18:30:31.085Z,2.40
2022-10-05T18:34:13.245Z,2.50
2022-10-05T18:37:41.620Z,2.03
2022-10-05T18:41:05.239Z,2.42
2022-10-05T18:44:39.616Z,1.33
2022-10-05T18:48:08.074Z,2.00
2022-10-05T18:51:39.703Z,2.47
2022-10-05T18:55:44.344Z,4.82
2022-10-05T18:59:43.766Z,3.88
2022-10-05T19:03:00.210Z,5.90
2022-10-05T19:06:51.760Z,7.47
2022-10-05T19:10:09.512Z,4.35
2022-10-05T19:14:20.474Z,5.05
2022-10-05T19:18:14.665Z,6.18
2022-10-05T19:21:47.441Z,5.50
2022-10-05T19:25:14.402Z,4.40
2022-10-05T19:29:15.462Z,7.18
2022-10-05T19:32:50.856Z,7.55
2022-10-05T19:36:35.392Z,8.15
2022-10-05T19:40:04.633Z,4.95
2022-10-05T19:43:57.159Z,6.40
2022-10-05T19:47:05.815Z,5.03
2022-10-05T19:50:33.579Z,4.30
2022-10-05T19:53:45.916Z,4.55
2022-10-05T19:56:54.260Z,3.60
2022-10-05T19:59:59.202Z,3.15
2022-10-05T20:03:17.979Z,3.08
2022-10-05T20:06:22.832Z,2.70
2022-10-05T20:09:28.665Z,1.92
2022-10-05T20:12:55.894Z,3.25
2022-10-05T20:16:38.569Z,2.88
2022-10-05T20:20:01.276Z,2.90
2022-10-05T20:23:27.960Z,2.28
2022-10-05T20:27:02.789Z,3.10
2022-10-05T20:30:09.787Z,1.70
2022-10-05T20:33:14.751Z,1.98
2022-10-05T20:36:19.829Z,1.92
2022-10-05T20:39:24.410Z,1.80
2022-10-05T20:42:29.747Z,2.28
2022-10-05T20:45:34.147Z,4.28
2022-10-05T20:48:39.722Z,3.08
2022-10-05T20:51:44.233Z,1.70
2022-10-05T20:54:52.930Z,2.22
2022-10-05T20:58:00.895Z,2.95
2022-10-05T21:01:23.378Z,1.05
2022-10-05T21:04:40.188Z,1.02
2022-10-05T21:07:45.449Z,0.90
2022-10-05T21:10:50.413Z,1.15
2022-10-05T21:13:54.860Z,1.10
2022-10-05T21:17:00.359Z,1.48
2022-10-05T21:20:05.684Z,0.50
2022-10-05T21:23:12.161Z,0.90
2022-10-05T21:26:16.532Z,0.30
2022-10-05T21:29:21.332Z,0.40
2022-10-05T21:32:26.108Z,0.77
2022-10-05T21:35:30.747Z,0.45
2022-10-05T21:38:35.866Z,2.10
2022-10-05T21:41:40.622Z,2.38
2022-10-05T21:44:45.464Z,0.80
2022-10-05T21:47:49.868Z,0.40
2022-10-05T21:50:54.657Z,1.00
2022-10-05T21:54:06.651Z,0.80
2022-10-05T21:57:12.138Z,0.60
2022-10-05T22:00:17.196Z,0.57
2022-10-05T22:03:21.742Z,0.88
2022-10-05T22:06:26.444Z,1.20
2022-10-05T22:09:30.796Z,1.02
2022-10-05T22:12:35.431Z,2.78
2022-10-05T22:15:40.599Z,1.77
2022-10-05T22:18:45.366Z,0.85
2022-10-05T22:21:49.696Z,0.45
2022-10-05T22:24:55.463Z,0.88
2022-10-05T22:28:02.337Z,0.65
2022-10-05T22:31:09.555Z,0.68
2022-10-05T22:34:15.270Z,1.17
2022-10-05T22:37:19.598Z,0.93
2022-10-05T22:40:24.023Z,1.52
2022-10-05T22:43:28.919Z,1.20
2022-10-05T22:46:33.677Z,1.55
2022-10-05T22:49:38.071Z,1.58
2022-10-05T22:52:42.648Z,1.35
2022-10-05T22:55:47.208Z,1.27
2022-10-05T22:58:51.837Z,1.45
2022-10-05T23:01:57.254Z,0.47
2022-10-05T23:05:01.916Z,1.65
2022-10-05T23:08:06.384Z,1.38
2022-10-05T23:11:23.664Z,1.10
2022-10-05T23:14:30.718Z,1.20
2022-10-05T23:17:38.857Z,0.90
2022-10-05T23:20:43.426Z,0.95
2022-10-05T23:23:51.094Z,2.17
2022-10-05T23:26:55.701Z,0.93
2022-10-05T23:30:00.434Z,1.30
2022-10-05T23:33:04.808Z,0.82
2022-10-05T23:36:20.009Z,0.60
2022-10-05T23:39:24.354Z,1.23
2022-10-05T23:42:28.846Z,2.03
2022-10-05T23:45:33.597Z,1.50
2022-10-05T23:48:38.376Z,1.60
2022-10-05T23:51:42.746Z,0.60
2022-10-05T23:54:47.552Z,1.27
2022-10-05T23:57:52.090Z,0.60
